ADDS METAR Data INFO
IDs: Format: Raw Decoded Include TAF

Data at: 1600 UTC 12 Dec 2017

KMRT 121555Z AUTO 32017G25KT 10SM SCT043 M04/M13 A2988 RMK AO2 T10401128
KMRT 121515Z AUTO 33012G22KT 10SM SCT065 M03/M11 A2988 RMK AO2 T10341106
KMRT 121455Z AUTO 34015G22KT 10SM OVC065 M04/M11 A2988 RMK AO2 T10401110
KMRT 121435Z AUTO 34016G22KT 10SM SCT035 OVC065 M04/M10 A2987 RMK AO2 T10371100
KMRT 121415Z AUTO 33015G24KT 10SM OVC065 M03/M10 A2985 RMK AO2 T10321105
KMRT 121355Z AUTO 34015G20KT 10SM BKN065 M03/M10 A2985 RMK AO2 T10321102
KMRT 121335Z AUTO 34017G24KT 10SM OVC060 M03/M09 A2983 RMK AO2 T10301093
KMRT 121315Z AUTO 33016G28KT 10SM SCT038 OVC060 M02/M08 A2983 RMK AO2 T10251077
KMRT 121255Z AUTO 34017G24KT 10SM SCT024 BKN039 OVC060 M02/M06 A2981 RMK AO2 T10231057
KMRT 121235Z AUTO 34010G20KT 10SM SCT012 BKN032 OVC038 M02/M05 A2980 RMK AO2 T10241046
KMRT 121215Z AUTO 32016G24KT 3SM SCT014 BKN019 OVC027 M02/M04 A2980 RMK AO2 T10201041
KMRT 121155Z AUTO 33013G23KT 10SM BKN013 OVC019 M01/M03 A2978 RMK AO2 T10081028 10035 21010
KMRT 121135Z AUTO 32006KT 5SM BKN011 OVC018 M01/M02 A2976 RMK AO2 T10101020
KMRT 121115Z AUTO 33011G19KT 2 1/2SM SCT015 OVC021 M01/M02 A2976 RMK AO2 T10071023
KMRT 121055Z AUTO 33011G19KT 5SM BKN017 BKN026 OVC040 00/M03 A2975 RMK AO2 T10021027
KMRT 121035Z AUTO 32009KT 10SM SCT011 BKN019 OVC026 00/M02 A2974 RMK AO2 T00001024
KMRT 121015Z AUTO 33011G20KT 7SM OVC009 00/M01 A2973 RMK AO2 T00001013
KMRT 120955Z AUTO 32014G18KT 5SM OVC007 00/M01 A2973 RMK AO2 T00001010
KMRT 120935Z AUTO 31012KT 3SM OVC005 00/M01 A2972 RMK AO2 T00001007
KMRT 120915Z AUTO 31013G19KT 3SM OVC005 00/M01 A2972 RMK AO2 T00001010
KMRT 120856Z AUTO 32012G17KT 5SM OVC009 00/M01 A2971 RMK AO2 T00001012
KMRT 120835Z AUTO 32010KT 7SM OVC011 00/M01 A2971 RMK AO2 T00021015
KMRT 120815Z AUTO 33010G17KT 7SM BKN011 OVC020 00/M02 A2970 RMK AO2 T00021018
KMRT 120755Z AUTO 33015G20KT 7SM OVC011 00/M02 A2970 RMK AO2 T00021017
KMRT 120735Z AUTO 32010G16KT 10SM SCT013 SCT018 SCT050 01/M02 A2968 RMK AO2 T00051016
KMRT 120715Z AUTO 32014G20KT 10SM SCT019 BKN070 01/M02 A2968 RMK AO2 T00141018
KMRT 120655Z AUTO 32016G23KT 10SM SCT021 SCT046 OVC060 02/M02 A2966 RMK AO2 T00241019
KMRT 120635Z AUTO 31016G23KT 10SM OVC044 03/M02 A2965 RMK AO2 T00311018
KMRT 120615Z AUTO 29017G24KT 10SM OVC044 03/M02 A2965 RMK AO2 T00331019
KMRT 120555Z AUTO 28018G24KT 10SM BKN050 OVC060 03/M02 A2963 RMK AO2 T00341019 10035 21002 400351021
KMRT 120535Z AUTO 27016G19KT 10SM SCT048 BKN060 03/M02 A2963 RMK AO2 T00331018
KMRT 120515Z AUTO 27012KT 10SM BKN048 BKN060 03/M02 A2962 RMK AO2 T00291016
KMRT 120455Z AUTO 26010KT 10SM BKN070 02/M02 A2961 RMK AO2 T00181020
KMRT 120435Z AUTO 24009KT 10SM SCT070 BKN090 OVC120 01/M02 A2962 RMK AO2 T00091023
KMRT 120415Z AUTO 23007KT 10SM SCT090 BKN120 01/M02 A2962 RMK AO2 T00051025
KMRT 120355Z AUTO 22006KT 10SM CLR 01/M03 A2962 RMK AO2 T00101026
KMRT 120335Z AUTO 21007KT 10SM CLR 01/M03 A2963 RMK AO2 T00071027
KMRT 120315Z AUTO 22007KT 10SM CLR 01/M03 A2964 RMK AO2 T00111027
KMRT 120255Z AUTO 19009KT 10SM SCT070 01/M03 A2964 RMK AO2 T00131026
KMRT 120235Z AUTO 18007KT 10SM OVC070 01/M03 A2965 RMK AO2 T00101026
KMRT 120215Z AUTO 19005KT 10SM BKN070 00/M03 A2966 RMK AO2 T00011027
KMRT 120155Z AUTO 18003KT 10SM CLR 00/M03 A2967 RMK AO2 T10021032
KMRT 120135Z AUTO 00000KT 10SM CLR 00/M03 A2968 RMK AO2 T00011032
KMRT 120115Z AUTO 00000KT 10SM CLR 01/M03 A2970 RMK AO2 T00141030
KMRT 120055Z AUTO 17004KT 10SM SCT120 02/M03 A2971 RMK AO2 T00161028
KMRT 120035Z AUTO 18004KT 10SM SCT120 02/M03 A2972 RMK AO2 T00171028
KMRT 120015Z AUTO 17005KT 10SM CLR 02/M03 A2972 RMK AO2 T00151028
KMRT 112355Z AUTO 00000KT 10SM CLR 01/M03 A2973 RMK AO2 T00121028 10022 20010
KMRT 112335Z AUTO 18005KT 10SM CLR 01/M03 A2975 RMK AO2 T00101026
KMRT 112315Z AUTO 16003KT 10SM CLR 01/M03 A2975 RMK AO2 T00131027
KMRT 112255Z AUTO 00000KT 10SM CLR 01/M03 A2977 RMK AO2 T00101027
KMRT 112235Z AUTO 17003KT 10SM CLR 01/M03 A2977 RMK AO2 T00121027
KMRT 112215Z AUTO 17004KT 10SM CLR 01/M03 A2978 RMK AO2 T00131026
KMRT 112155Z AUTO 16003KT 10SM CLR 02/M03 A2979 RMK AO2 T00161026
KMRT 112135Z AUTO 18005KT 10SM CLR 02/M02 A2980 RMK AO2 T00201025
KMRT 112115Z AUTO 19008KT 10SM CLR 02/M02 A2981 RMK AO2 T00201024
KMRT 112055Z AUTO 20006KT 10SM SCT050 SCT120 02/M03 A2983 RMK AO2 T00221026
KMRT 112035Z AUTO 19007KT 10SM BKN050 BKN120 02/M03 A2984 RMK AO2 T00211026
KMRT 112015Z AUTO 21006KT 10SM SCT050 SCT120 02/M03 A2985 RMK AO2 T00221027
KMRT 111955Z AUTO 20009KT 10SM CLR 02/M03 A2986 RMK AO2 T00201031
KMRT 111935Z AUTO 21006KT 10SM CLR 02/M03 A2987 RMK AO2 T00201032
KMRT 111855Z AUTO 21011G16KT 10SM SCT050 BKN080 BKN090 02/M04 A2988 RMK AO2 T00161036
KMRT 111835Z AUTO 20011G15KT 10SM BKN050 OVC080 01/M04 A2989 RMK AO2 T00131037
KMRT 111815Z AUTO 20010KT 10SM SCT050 BKN095 01/M04 A2991 RMK AO2 T00121040
KMRT 111755Z AUTO 21012KT 10SM SCT060 SCT095 01/M04 A2992 RMK AO2 T00101041 10015 21021
KMRT 111735Z AUTO 20013KT 10SM SCT060 SCT120 01/M04 A2993 RMK AO2 T00101042
KMRT 111715Z AUTO 20011KT 10SM SCT060 SCT070 01/M04 A2995 RMK AO2 T00101043
KMRT 111655Z AUTO 23009KT 10SM CLR 01/M04 A2998 RMK AO2 T00071044
KMRT 111635Z AUTO 19011KT 10SM SCT065 SCT075 SCT100 00/M05 A2998 RMK AO2 T00031046
KMRT 111615Z AUTO 21010KT 10SM SCT070 SCT085 00/M05 A3000 RMK AO2 T00011049
KMRT 111555Z AUTO 20009KT 10SM SCT095 00/M05 A3000 RMK AO2 T10011050
KMRT 111535Z AUTO 21008KT 10SM CLR 00/M05 A3001 RMK AO2 T10051051
KMRT 111515Z AUTO 21008KT 10SM SCT022 SCT060 00/M05 A3002 RMK AO2 T10051052
KMRT 111455Z AUTO 21006KT 10SM SCT060 SCT070 SCT085 M01/M05 A3003 RMK AO2 T10061053
KMRT 111435Z AUTO 21006KT 10SM SCT026 SCT070 SCT085 M01/M05 A3005 RMK AO2 T10091054
KMRT 111415Z AUTO 23006KT 10SM BKN026 M01/M05 A3005 RMK AO2 T10101054
KMRT 111355Z AUTO 21007KT 10SM OVC024 M01/M05 A3004 RMK AO2 T10111050
KMRT 111335Z AUTO 20003KT 10SM OVC024 M01/M05 A3005 RMK AO2 T10141047
KMRT 111315Z AUTO 22003KT 10SM OVC024 M02/M04 A3005 RMK AO2 T10161044
KMRT 111255Z AUTO 00000KT 10SM OVC024 M02/M05 A3006 RMK AO2 T10171047
KMRT 111235Z AUTO 23004KT 10SM OVC024 M02/M05 A3006 RMK AO2 T10201047
KMRT 111215Z AUTO 00000KT 10SM OVC026 M02/M06 A3005 RMK AO2 T10181057
KMRT 111155Z AUTO 30003KT 10SM OVC026 M02/M06 A3006 RMK AO2 T10171062 11004 21017
KMRT 111135Z AUTO 00000KT 10SM OVC026 M01/M07 A3005 RMK AO2 T10151066
KMRT 111115Z AUTO 00000KT 10SM OVC026 M01/M06 A3007 RMK AO2 T10131058
KMRT 111055Z AUTO 00000KT 10SM OVC024 M01/M05 A3006 RMK AO2 T10141053
KMRT 111035Z AUTO 02003KT 10SM OVC024 M01/M05 A3005 RMK AO2 T10131050
KMRT 111015Z AUTO 02004KT 10SM OVC022 M01/M05 A3005 RMK AO2 T10111052
KMRT 110955Z AUTO 32004KT 10SM OVC024 M01/M05 A3006 RMK AO2 T10111055
KMRT 110935Z AUTO 32005KT 10SM OVC024 M01/M05 A3005 RMK AO2 T10101055
KMRT 110915Z AUTO 33005KT 10SM OVC026 M01/M05 A3005 RMK AO2 T10101055
KMRT 110855Z AUTO 32007KT 10SM OVC026 M01/M06 A3005 RMK AO2 T10101057
KMRT 110835Z AUTO 33005KT 10SM OVC024 M01/M05 A3004 RMK AO2 T10101053
KMRT 110815Z AUTO 34005KT 10SM OVC022 M01/M05 A3004 RMK AO2 T10101051
KMRT 110755Z AUTO 33007KT 10SM OVC022 M01/M05 A3005 RMK AO2 T10101052
KMRT 110735Z AUTO 34009G15KT 10SM OVC022 M01/M05 A3005 RMK AO2 T10081053
KMRT 110715Z AUTO 32007KT 10SM OVC022 M01/M05 A3004 RMK AO2 T10071050
KMRT 110655Z AUTO 32010KT 10SM OVC024 M01/M05 A3004 RMK AO2 T10071050
KMRT 110635Z AUTO 34009KT 10SM OVC024 M01/M05 A3003 RMK AO2 T10071049
KMRT 110615Z AUTO 34011G19KT 10SM OVC024 M01/M05 A3003 RMK AO2 T10061051
KMRT 110555Z AUTO 33009G15KT 10SM OVC026 00/M05 A3002 RMK AO2 T10031047 10000 21018 400001051
KMRT 110535Z AUTO 33013G16KT 10SM OVC028 00/M04 A3001 RMK AO2 T10011045
KMRT 110515Z AUTO 32009KT 10SM OVC030 00/M04 A3000 RMK AO2 T00001043
KMRT 110455Z AUTO 30009KT 10SM OVC032 00/M04 A2999 RMK AO2 T00001043
KMRT 110435Z AUTO 29009KT 10SM OVC034 00/M04 A2999 RMK AO2 T00001045
KMRT 110415Z AUTO 28009KT 10SM OVC036 00/M04 A2998 RMK AO2 T00001045